createdAt,value
2018-09-19T00:00:40.592Z,4.53
2018-09-19T00:02:44.201Z,5.03
2018-09-19T00:04:47.826Z,4.70
2018-09-19T00:06:51.572Z,4.07
2018-09-19T00:08:55.177Z,4.83
2018-09-19T00:10:58.696Z,4.60
2018-09-19T00:13:02.279Z,4.93
2018-09-19T00:15:05.988Z,4.40
2018-09-19T00:17:09.602Z,4.63
2018-09-19T00:19:13.242Z,4.30
2018-09-19T00:21:16.811Z,4.10
2018-09-19T00:23:20.434Z,4.07
2018-09-19T00:25:24.066Z,4.30
2018-09-19T00:27:27.653Z,3.93
2018-09-19T00:29:31.611Z,3.93
2018-09-19T00:31:35.363Z,4.10
2018-09-19T00:33:38.981Z,4.20
2018-09-19T00:35:42.526Z,4.13
2018-09-19T00:37:46.161Z,4.50
2018-09-19T00:39:49.674Z,4.13
2018-09-19T00:41:53.199Z,4.50
2018-09-19T00:43:56.759Z,4.50
2018-09-19T00:46:00.315Z,4.33
2018-09-19T00:48:03.895Z,4.73
2018-09-19T00:50:07.503Z,4.23
2018-09-19T00:52:11.160Z,4.17
2018-09-19T00:54:14.838Z,4.77
2018-09-19T00:56:18.404Z,4.43
2018-09-19T00:58:22.087Z,4.60
2018-09-19T01:00:25.704Z,4.73
2018-09-19T01:02:29.397Z,5.20
2018-09-19T01:04:33.176Z,4.17
2018-09-19T01:06:36.798Z,4.37
2018-09-19T01:08:40.358Z,4.60
2018-09-19T01:10:43.908Z,4.50
2018-09-19T01:12:47.595Z,4.33
2018-09-19T01:14:51.161Z,4.70
2018-09-19T01:16:54.674Z,5.33
2018-09-19T01:18:58.448Z,4.40
2018-09-19T01:21:02.064Z,5.20
2018-09-19T01:23:05.669Z,4.70
2018-09-19T01:25:09.268Z,4.60
2018-09-19T01:27:12.839Z,4.53
2018-09-19T01:29:16.508Z,4.77
2018-09-19T01:31:20.067Z,4.80
2018-09-19T01:33:23.668Z,4.67
2018-09-19T01:35:27.287Z,4.90
2018-09-19T01:37:30.865Z,4.80
2018-09-19T01:39:34.446Z,4.37
2018-09-19T01:41:38.044Z,4.47
2018-09-19T01:43:41.793Z,4.50
2018-09-19T01:45:45.411Z,4.60
2018-09-19T01:47:49.159Z,4.90
2018-09-19T01:49:53.012Z,5.03
2018-09-19T01:51:56.721Z,4.33
2018-09-19T01:54:00.490Z,4.43
2018-09-19T01:56:04.094Z,4.70
2018-09-19T01:58:07.700Z,4.70
2018-09-19T02:00:11.236Z,4.57
2018-09-19T02:02:15.140Z,5.00
2018-09-19T02:04:18.863Z,4.93
2018-09-19T02:06:22.489Z,4.57
2018-09-19T02:08:26.176Z,5.30
2018-09-19T02:10:29.698Z,5.90
2018-09-19T02:12:33.412Z,4.73
2018-09-19T02:14:37.030Z,4.70
2018-09-19T02:16:41.166Z,4.17
2018-09-19T02:18:44.767Z,4.23
2018-09-19T02:20:48.349Z,4.83
2018-09-19T02:22:51.918Z,4.40
2018-09-19T02:24:55.588Z,4.00
2018-09-19T02:26:59.228Z,4.50
2018-09-19T02:29:02.932Z,4.00
2018-09-19T02:31:06.621Z,4.10
2018-09-19T02:33:10.257Z,4.27
2018-09-19T02:35:14.107Z,4.20
2018-09-19T02:37:17.791Z,4.30
2018-09-19T02:39:21.308Z,4.83
2018-09-19T02:41:24.884Z,5.20
2018-09-19T02:43:28.568Z,4.63
2018-09-19T02:45:32.163Z,4.60
2018-09-19T02:47:35.783Z,4.60
2018-09-19T02:49:39.361Z,4.47
2018-09-19T02:51:43.011Z,4.57
2018-09-19T02:53:47.855Z,4.30
2018-09-19T02:55:51.428Z,4.77
2018-09-19T02:57:55.046Z,4.13
2018-09-19T02:59:58.636Z,4.30
2018-09-19T03:02:02.240Z,4.40
2018-09-19T03:04:06.069Z,4.40
2018-09-19T03:06:09.610Z,4.37
2018-09-19T03:08:13.299Z,4.27
2018-09-19T03:10:16.822Z,3.90
2018-09-19T03:12:20.425Z,4.20
2018-09-19T03:14:24.006Z,3.90
2018-09-19T03:16:27.617Z,4.10
2018-09-19T03:18:31.467Z,4.07
2018-09-19T03:20:35.025Z,4.17
2018-09-19T03:22:38.659Z,4.07
2018-09-19T03:24:42.189Z,4.63
2018-09-19T03:26:45.773Z,4.20
2018-09-19T03:28:49.554Z,4.30
2018-09-19T03:30:53.134Z,4.27
2018-09-19T03:32:56.763Z,4.30
2018-09-19T03:35:00.347Z,4.27
2018-09-19T03:37:04.014Z,4.30
2018-09-19T03:39:09.286Z,4.53
2018-09-19T03:41:12.883Z,4.40
2018-09-19T03:43:16.433Z,5.67
2018-09-19T03:45:20.017Z,5.10
2018-09-19T03:47:23.674Z,5.60
2018-09-19T03:49:27.368Z,5.13
2018-09-19T03:51:31.079Z,6.57
2018-09-19T03:53:34.689Z,5.83
2018-09-19T03:55:38.290Z,6.03
2018-09-19T03:57:42.074Z,5.80
2018-09-19T03:59:45.668Z,5.90
2018-09-19T04:01:49.247Z,5.50
2018-09-19T04:03:52.829Z,6.20
2018-09-19T04:05:56.598Z,5.27
2018-09-19T04:08:00.193Z,6.60
2018-09-19T04:10:03.786Z,5.70
2018-09-19T04:12:07.473Z,5.70
2018-09-19T04:14:11.961Z,5.87
2018-09-19T04:16:15.711Z,6.07
2018-09-19T04:18:19.318Z,5.67
2018-09-19T04:20:22.923Z,5.90
2018-09-19T04:22:26.488Z,5.97
2018-09-19T04:24:30.008Z,6.30
2018-09-19T04:26:33.696Z,5.87
2018-09-19T04:28:37.248Z,5.30
2018-09-19T04:30:40.958Z,6.30
2018-09-19T04:32:44.567Z,5.53
2018-09-19T04:34:48.247Z,5.20
2018-09-19T04:36:51.844Z,5.43
2018-09-19T04:38:55.400Z,5.30
2018-09-19T04:40:59.090Z,5.70
2018-09-19T04:43:02.668Z,5.77
2018-09-19T04:45:06.408Z,5.57
2018-09-19T04:47:09.884Z,5.90
2018-09-19T04:49:13.402Z,5.70
2018-09-19T04:51:17.105Z,5.73
2018-09-19T04:53:20.576Z,5.23
2018-09-19T04:55:24.084Z,5.97
2018-09-19T04:57:27.630Z,5.70
2018-09-19T04:59:31.167Z,5.77
2018-09-19T05:01:34.846Z,5.80
2018-09-19T05:03:38.365Z,6.57
2018-09-19T05:05:41.894Z,5.73
2018-09-19T05:07:45.406Z,5.90
2018-09-19T05:09:49.103Z,5.57
2018-09-19T05:11:52.630Z,5.50
2018-09-19T05:13:56.107Z,5.93
2018-09-19T05:15:59.610Z,5.87
2018-09-19T05:18:03.247Z,5.73
2018-09-19T05:20:06.926Z,6.13
2018-09-19T05:22:10.396Z,6.07
2018-09-19T05:24:13.869Z,6.20
2018-09-19T05:26:17.467Z,6.90
2018-09-19T05:28:21.160Z,7.20
2018-09-19T05:30:24.928Z,7.63
2018-09-19T05:32:28.404Z,7.27
2018-09-19T05:34:31.920Z,7.73
2018-09-19T05:36:35.448Z,7.43
2018-09-19T05:38:39.046Z,8.13
2018-09-19T05:40:42.603Z,8.20
2018-09-19T05:42:46.415Z,8.23
2018-09-19T05:44:49.924Z,7.67
2018-09-19T05:46:53.440Z,7.27
2018-09-19T05:48:57.051Z,8.10
2018-09-19T05:51:00.565Z,8.37
2018-09-19T05:53:04.161Z,7.43
2018-09-19T05:55:07.953Z,8.10
2018-09-19T05:57:11.463Z,7.93
2018-09-19T05:59:15.279Z,7.97
2018-09-19T06:01:19.034Z,8.03
2018-09-19T06:03:22.671Z,7.33
2018-09-19T06:05:26.672Z,7.07
2018-09-19T06:07:30.421Z,7.60
2018-09-19T06:09:34.308Z,7.23
2018-09-19T06:11:38.059Z,7.80
2018-09-19T06:13:41.772Z,8.30
2018-09-19T06:15:45.263Z,8.43
2018-09-19T06:17:48.938Z,9.23
2018-09-19T06:19:52.424Z,8.43
2018-09-19T06:21:56.111Z,8.23
2018-09-19T06:23:59.708Z,9.57
2018-09-19T06:26:03.321Z,9.33
2018-09-19T06:28:06.874Z,8.87
2018-09-19T06:30:10.411Z,8.43
2018-09-19T06:32:13.935Z,8.47
2018-09-19T06:34:17.462Z,8.47
2018-09-19T06:36:20.976Z,8.80
2018-09-19T06:38:24.584Z,9.20
2018-09-19T06:40:28.407Z,9.20
2018-09-19T06:42:31.908Z,9.07
2018-09-19T06:44:35.423Z,8.40
2018-09-19T06:46:38.925Z,8.00
2018-09-19T06:48:42.433Z,9.23
2018-09-19T06:50:46.133Z,7.80
2018-09-19T06:52:49.647Z,7.90
2018-09-19T06:54:53.420Z,7.97
2018-09-19T06:56:56.980Z,8.57
2018-09-19T06:59:00.551Z,9.07
2018-09-19T07:01:04.167Z,8.97
2018-09-19T07:03:07.686Z,8.67
2018-09-19T07:05:11.226Z,10.47
2018-09-19T07:07:14.854Z,10.90
2018-09-19T07:09:18.360Z,9.47
2018-09-19T07:11:22.064Z,10.93
2018-09-19T07:13:25.727Z,12.03
2018-09-19T07:15:29.291Z,12.83
2018-09-19T07:17:33.055Z,13.97
2018-09-19T07:19:36.635Z,13.60
2018-09-19T07:21:40.305Z,13.33
2018-09-19T07:23:43.900Z,13.00
2018-09-19T07:25:47.662Z,12.93
2018-09-19T07:27:51.183Z,12.93
2018-09-19T07:29:54.689Z,13.27
2018-09-19T07:31:58.379Z,13.30
2018-09-19T07:34:01.911Z,13.67
2018-09-19T07:36:05.617Z,14.57
2018-09-19T07:38:09.122Z,13.20
2018-09-19T07:40:12.698Z,13.13
2018-09-19T07:42:16.226Z,15.20
2018-09-19T07:44:19.755Z,12.83
2018-09-19T07:46:23.557Z,13.83
2018-09-19T07:48:27.174Z,12.63
2018-09-19T07:50:30.887Z,12.80
2018-09-19T07:52:34.352Z,12.83
2018-09-19T07:54:37.930Z,13.47
2018-09-19T07:56:41.486Z,12.97
2018-09-19T07:58:45.010Z,13.63
2018-09-19T08:00:48.671Z,13.43
2018-09-19T08:02:52.055Z,13.83
2018-09-19T08:04:55.852Z,13.27
2018-09-19T08:06:59.560Z,12.80
2018-09-19T08:09:03.253Z,15.17
2018-09-19T08:11:06.835Z,16.00
2018-09-19T08:13:10.330Z,14.23
2018-09-19T08:15:13.866Z,14.57
2018-09-19T08:17:17.504Z,14.07
2018-09-19T08:19:21.050Z,15.03
2018-09-19T08:21:24.571Z,14.57
2018-09-19T08:23:28.269Z,13.87
2018-09-19T08:25:31.883Z,13.60
2018-09-19T08:27:35.488Z,14.80
2018-09-19T08:29:38.993Z,13.73
2018-09-19T08:31:42.623Z,13.43
2018-09-19T08:33:46.579Z,13.57
2018-09-19T08:35:50.207Z,14.13
2018-09-19T08:37:53.728Z,13.17
2018-09-19T08:39:57.251Z,14.77
2018-09-19T08:42:00.976Z,13.97
2018-09-19T08:44:04.493Z,13.83
2018-09-19T08:46:08.038Z,13.57
2018-09-19T08:48:11.734Z,12.07
2018-09-19T08:50:15.219Z,11.37
2018-09-19T08:52:18.767Z,10.83
2018-09-19T08:54:22.268Z,10.73
2018-09-19T08:56:25.963Z,10.07
2018-09-19T08:58:29.485Z,10.27
2018-09-19T09:00:33.175Z,11.13
2018-09-19T09:02:36.764Z,10.37
2018-09-19T09:04:40.412Z,10.57
2018-09-19T09:06:44.042Z,11.10
2018-09-19T09:08:47.622Z,9.63
2018-09-19T09:10:51.330Z,10.20
2018-09-19T09:12:54.938Z,10.23
2018-09-19T09:14:58.646Z,10.50
2018-09-19T09:17:02.175Z,10.37
2018-09-19T09:19:05.828Z,9.90
2018-09-19T09:21:09.340Z,10.43
2018-09-19T09:23:12.847Z,9.13
2018-09-19T09:25:16.345Z,9.20
2018-09-19T09:27:19.944Z,9.10
2018-09-19T09:29:23.608Z,8.90
2018-09-19T09:31:27.123Z,9.17
2018-09-19T09:33:30.671Z,8.30
2018-09-19T09:35:34.256Z,8.77
2018-09-19T09:37:38.279Z,8.37
2018-09-19T09:39:41.813Z,7.77
2018-09-19T09:41:45.401Z,7.40
2018-09-19T09:43:48.917Z,7.70
2018-09-19T09:45:52.438Z,7.43
2018-09-19T09:47:55.913Z,7.20
2018-09-19T09:49:59.426Z,6.53
2018-09-19T09:52:02.983Z,6.57
2018-09-19T09:54:06.455Z,5.70
2018-09-19T09:56:10.108Z,5.47
2018-09-19T09:58:13.636Z,5.77
2018-09-19T10:00:22.546Z,6.57
2018-09-19T10:02:26.064Z,6.30
2018-09-19T10:04:29.608Z,5.27
2018-09-19T10:06:33.196Z,5.90
2018-09-19T10:08:36.714Z,5.67
2018-09-19T10:10:40.224Z,6.13
2018-09-19T10:12:43.840Z,5.73
2018-09-19T10:14:47.330Z,5.30
2018-09-19T10:16:50.848Z,5.37
2018-09-19T10:18:54.427Z,5.57
2018-09-19T10:20:58.063Z,5.40
2018-09-19T10:23:01.615Z,5.47
2018-09-19T10:25:05.372Z,5.27
2018-09-19T10:27:08.832Z,5.47
2018-09-19T10:29:12.374Z,4.97
2018-09-19T10:31:15.903Z,5.43
2018-09-19T10:33:19.599Z,5.33
2018-09-19T10:35:23.271Z,5.27
2018-09-19T10:37:26.699Z,5.13
2018-09-19T10:39:30.181Z,5.20
2018-09-19T10:41:33.885Z,5.57
2018-09-19T10:43:37.594Z,5.20
2018-09-19T10:45:41.264Z,5.67
2018-09-19T10:47:44.772Z,5.60
2018-09-19T10:49:48.272Z,4.95
2018-09-19T10:51:51.923Z,4.80
2018-09-19T10:53:55.535Z,5.13
2018-09-19T10:55:59.049Z,5.70
2018-09-19T10:58:02.666Z,4.60
2018-09-19T11:00:07.348Z,4.50
2018-09-19T11:02:11.081Z,4.37
2018-09-19T11:04:14.742Z,4.45
2018-09-19T11:06:18.277Z,4.35
2018-09-19T11:08:21.799Z,4.90
2018-09-19T11:10:25.341Z,4.60
2018-09-19T11:12:28.850Z,4.43
2018-09-19T11:14:32.351Z,5.17
2018-09-19T11:16:35.964Z,4.30
2018-09-19T11:18:39.459Z,4.30
2018-09-19T11:20:42.984Z,4.47
2018-09-19T11:22:46.917Z,4.37
2018-09-19T11:24:50.497Z,3.83
2018-09-19T11:26:54.004Z,4.50
2018-09-19T11:28:57.494Z,4.05
2018-09-19T11:31:01.045Z,3.53
2018-09-19T11:33:04.571Z,4.43
2018-09-19T11:35:08.130Z,4.67
2018-09-19T11:37:11.735Z,4.10
2018-09-19T11:39:15.265Z,4.03
2018-09-19T11:41:18.779Z,3.65
2018-09-19T11:43:22.581Z,3.80
2018-09-19T11:45:26.072Z,3.67
2018-09-19T11:47:29.600Z,3.12
2018-09-19T11:49:33.155Z,3.50
2018-09-19T11:51:36.729Z,3.77
2018-09-19T11:53:40.291Z,4.37
2018-09-19T11:55:43.956Z,4.30
2018-09-19T11:57:47.575Z,4.10
2018-09-19T11:59:51.124Z,4.30
2018-09-19T12:01:54.654Z,4.20
2018-09-19T12:03:58.311Z,3.83
2018-09-19T12:06:01.945Z,4.00
2018-09-19T12:08:05.752Z,4.33
2018-09-19T12:10:09.250Z,4.28
2018-09-19T12:12:12.765Z,4.10
2018-09-19T12:14:16.269Z,3.75
2018-09-19T12:16:19.860Z,4.25
2018-09-19T12:18:23.387Z,3.95
2018-09-19T12:20:27.024Z,4.08
2018-09-19T12:22:30.624Z,4.10
2018-09-19T12:24:34.179Z,4.12
2018-09-19T12:26:37.775Z,4.03
2018-09-19T12:28:41.316Z,3.58
2018-09-19T12:30:44.899Z,3.92
2018-09-19T12:32:48.423Z,4.00
2018-09-19T12:34:51.985Z,3.20
2018-09-19T12:36:55.625Z,6.22
2018-09-19T12:38:59.127Z,4.55
2018-09-19T12:41:02.671Z,3.60
2018-09-19T12:43:06.373Z,3.75
2018-09-19T12:45:09.916Z,3.52
2018-09-19T12:47:16.548Z,3.77
2018-09-19T12:49:20.154Z,4.33
2018-09-19T12:51:23.703Z,3.40
2018-09-19T12:53:27.214Z,3.87
2018-09-19T12:55:30.900Z,3.50
2018-09-19T12:57:34.412Z,3.50
2018-09-19T12:59:37.916Z,4.10
2018-09-19T13:01:41.383Z,4.00
2018-09-19T13:03:44.932Z,3.92
2018-09-19T13:05:48.697Z,3.87
2018-09-19T13:07:52.371Z,4.05
2018-09-19T13:09:55.934Z,3.80
2018-09-19T13:11:59.439Z,3.85
2018-09-19T13:14:03.000Z,3.40
2018-09-19T13:16:06.567Z,3.62
2018-09-19T13:18:10.103Z,3.60
2018-09-19T13:20:13.703Z,3.30
2018-09-19T13:22:17.453Z,3.80
2018-09-19T13:24:21.006Z,4.22
2018-09-19T13:26:24.640Z,3.70
2018-09-19T13:28:28.192Z,3.70
2018-09-19T13:30:31.715Z,3.52
2018-09-19T13:32:35.255Z,3.55
2018-09-19T13:34:38.886Z,3.35
2018-09-19T13:36:42.383Z,3.40
2018-09-19T13:38:46.051Z,3.62
2018-09-19T13:40:49.567Z,3.58
2018-09-19T13:42:53.207Z,3.40
2018-09-19T13:44:56.704Z,3.50
2018-09-19T13:47:00.247Z,3.60
2018-09-19T13:49:28.786Z,3.58
2018-09-19T13:51:32.314Z,3.40
2018-09-19T13:53:36.084Z,3.75
2018-09-19T13:55:39.822Z,3.80
2018-09-19T13:57:43.351Z,3.47
2018-09-19T13:59:46.920Z,3.67
2018-09-19T14:01:50.508Z,3.90
2018-09-19T14:03:54.093Z,3.83
2018-09-19T14:05:57.621Z,3.40
2018-09-19T14:08:01.199Z,3.30
2018-09-19T14:10:05.361Z,3.60
2018-09-19T14:12:08.986Z,3.45
2018-09-19T14:14:12.829Z,4.00
2018-09-19T14:16:16.335Z,3.55
2018-09-19T14:18:20.023Z,3.80
2018-09-19T14:20:23.526Z,3.50
2018-09-19T14:22:27.157Z,3.60
2018-09-19T14:24:30.648Z,3.62
2018-09-19T14:26:34.240Z,3.60
2018-09-19T14:28:37.827Z,3.80
2018-09-19T14:30:41.374Z,3.67
2018-09-19T14:32:44.915Z,4.12
2018-09-19T14:34:48.475Z,3.50
2018-09-19T14:36:52.076Z,3.70
2018-09-19T14:38:55.656Z,3.60
2018-09-19T14:40:59.187Z,3.98
2018-09-19T14:43:02.905Z,3.35
2018-09-19T14:45:06.742Z,4.15
2018-09-19T14:47:10.380Z,3.60
2018-09-19T14:49:13.871Z,3.50
2018-09-19T14:51:17.388Z,3.70
2018-09-19T14:53:20.919Z,3.60
2018-09-19T14:55:24.589Z,3.50
2018-09-19T14:57:28.302Z,3.40
2018-09-19T14:59:34.845Z,3.92
2018-09-19T15:01:38.404Z,3.83
2018-09-19T15:03:41.962Z,3.22
2018-09-19T15:05:45.644Z,3.50
2018-09-19T15:07:49.187Z,4.05
2018-09-19T15:09:52.723Z,3.75
2018-09-19T15:11:56.432Z,3.70
2018-09-19T15:13:59.974Z,3.95
2018-09-19T15:16:03.522Z,3.98
2018-09-19T15:18:07.238Z,3.90
2018-09-19T15:20:10.707Z,3.27
2018-09-19T15:22:14.431Z,3.27
2018-09-19T15:24:18.021Z,3.20
2018-09-19T15:26:21.520Z,3.37
2018-09-19T15:28:25.030Z,3.47
2018-09-19T15:30:28.708Z,3.52
2018-09-19T15:32:32.316Z,3.10
2018-09-19T15:34:36.114Z,3.27
2018-09-19T15:36:39.782Z,3.10
2018-09-19T15:38:43.307Z,3.20
2018-09-19T15:40:46.810Z,3.20
2018-09-19T15:42:50.577Z,3.15
2018-09-19T15:44:54.321Z,3.00
2018-09-19T15:46:57.855Z,3.65
2018-09-19T15:49:01.484Z,3.25
2018-09-19T15:51:05.112Z,3.40
2018-09-19T15:53:08.778Z,3.70
2018-09-19T15:55:12.493Z,3.27
2018-09-19T15:57:16.176Z,3.55
2018-09-19T15:59:19.655Z,3.60
2018-09-19T16:01:23.237Z,4.00
2018-09-19T16:03:27.411Z,3.72
2018-09-19T16:05:30.961Z,3.77
2018-09-19T16:07:35.411Z,4.00
2018-09-19T16:09:38.996Z,4.15
2018-09-19T16:11:42.557Z,3.72
2018-09-19T16:13:46.220Z,4.12
2018-09-19T16:15:49.973Z,3.58
2018-09-19T16:17:53.489Z,4.45
2018-09-19T16:19:57.183Z,3.60
2018-09-19T16:22:00.773Z,3.75
2018-09-19T16:24:04.327Z,3.92
2018-09-19T16:26:08.166Z,3.42
2018-09-19T16:28:11.699Z,3.58
2018-09-19T16:30:15.269Z,3.45
2018-09-19T16:32:18.794Z,3.85
2018-09-19T16:34:22.486Z,3.95
2018-09-19T16:36:25.997Z,3.67
2018-09-19T16:38:29.512Z,3.90
2018-09-19T16:40:33.028Z,3.77
2018-09-19T16:42:36.572Z,4.30
2018-09-19T16:44:40.291Z,4.87
2018-09-19T16:46:43.899Z,4.80
2018-09-19T16:48:47.600Z,4.50
2018-09-19T16:50:51.220Z,4.60
2018-09-19T16:52:55.135Z,4.00
2018-09-19T16:54:58.615Z,4.03
2018-09-19T16:57:02.127Z,3.95
2018-09-19T16:59:05.995Z,3.50
2018-09-19T17:01:10.117Z,3.67
2018-09-19T17:03:14.060Z,4.03
2018-09-19T17:05:17.707Z,4.05
2018-09-19T17:07:21.837Z,3.95
2018-09-19T17:09:25.366Z,4.70
2018-09-19T17:11:28.952Z,4.00
2018-09-19T17:13:32.543Z,6.10
2018-09-19T17:15:36.150Z,6.70
2018-09-19T17:17:39.658Z,5.90
2018-09-19T17:19:43.188Z,5.75
2018-09-19T17:21:46.816Z,6.30
2018-09-19T17:23:50.325Z,9.28
2018-09-19T17:25:54.096Z,8.33
2018-09-19T17:27:57.539Z,8.53
2018-09-19T17:30:01.264Z,6.93
2018-09-19T17:32:04.885Z,7.33
2018-09-19T17:34:08.463Z,7.08
2018-09-19T17:36:12.047Z,7.58
2018-09-19T17:38:15.712Z,7.45
2018-09-19T17:40:19.235Z,7.40
2018-09-19T17:42:22.770Z,6.63
2018-09-19T17:44:26.396Z,5.67
2018-09-19T17:46:30.266Z,6.10
2018-09-19T17:48:33.827Z,6.93
2018-09-19T17:50:37.387Z,6.47
2018-09-19T17:52:41.185Z,7.07
2018-09-19T17:54:44.727Z,6.27
2018-09-19T17:56:48.365Z,6.30
2018-09-19T17:58:52.134Z,6.17
2018-09-19T18:00:55.755Z,5.40
2018-09-19T18:02:59.202Z,5.20
2018-09-19T18:05:02.849Z,5.47
2018-09-19T18:07:07.098Z,5.67
2018-09-19T18:09:10.664Z,5.70
2018-09-19T18:11:14.307Z,5.20
2018-09-19T18:13:18.095Z,5.30
2018-09-19T18:15:21.712Z,4.77
2018-09-19T18:17:25.304Z,5.47
2018-09-19T18:19:28.905Z,5.30
2018-09-19T18:21:33.389Z,5.30
2018-09-19T18:23:36.908Z,4.93
2018-09-19T18:25:40.597Z,4.93
2018-09-19T18:27:44.173Z,5.17
2018-09-19T18:29:47.698Z,5.40
2018-09-19T18:31:51.432Z,5.83
2018-09-19T18:33:55.060Z,5.90
2018-09-19T18:35:58.667Z,5.00
2018-09-19T18:38:02.234Z,4.87
2018-09-19T18:40:05.896Z,5.03
2018-09-19T18:42:09.447Z,4.37
2018-09-19T18:44:13.156Z,5.10
2018-09-19T18:46:16.787Z,5.53
2018-09-19T18:48:20.450Z,5.90
2018-09-19T18:50:24.303Z,5.40
2018-09-19T18:52:28.412Z,5.80
2018-09-19T18:54:32.164Z,5.50
2018-09-19T18:56:36.076Z,6.33
2018-09-19T18:58:39.713Z,5.93
2018-09-19T19:00:43.468Z,6.33
2018-09-19T19:02:47.076Z,6.30
2018-09-19T19:04:50.863Z,5.90
2018-09-19T19:06:54.464Z,5.50
2018-09-19T19:08:58.070Z,5.47
2018-09-19T19:11:01.856Z,6.97
2018-09-19T19:13:05.562Z,6.50
2018-09-19T19:15:09.351Z,6.17
2018-09-19T19:17:13.159Z,6.77
2018-09-19T19:19:16.921Z,5.87
2018-09-19T19:21:20.787Z,6.27
2018-09-19T19:23:24.404Z,5.73
2018-09-19T19:25:27.991Z,5.93
2018-09-19T19:27:31.599Z,5.57
2018-09-19T19:29:35.292Z,6.13
2018-09-19T19:31:38.860Z,6.00
2018-09-19T19:33:42.588Z,6.20
2018-09-19T19:35:46.316Z,6.70
2018-09-19T19:37:50.020Z,6.90
2018-09-19T19:39:53.413Z,7.10
2018-09-19T19:41:57.185Z,6.10
2018-09-19T19:44:00.780Z,6.60
2018-09-19T19:46:04.324Z,6.50
2018-09-19T19:48:07.952Z,6.47
2018-09-19T19:50:11.537Z,5.77
2018-09-19T19:52:15.341Z,6.00
2018-09-19T19:54:18.899Z,6.07
2018-09-19T19:56:22.535Z,6.43
2018-09-19T19:58:26.346Z,6.60
2018-09-19T20:00:29.986Z,6.07
2018-09-19T20:02:34.116Z,6.40
2018-09-19T20:04:37.692Z,6.93
2018-09-19T20:06:41.280Z,7.27
2018-09-19T20:08:44.995Z,6.63
2018-09-19T20:10:48.780Z,7.07
2018-09-19T20:12:52.278Z,6.47
2018-09-19T20:14:55.835Z,6.33
2018-09-19T20:16:59.497Z,6.83
2018-09-19T20:19:03.354Z,6.00
2018-09-19T20:21:06.847Z,6.40
2018-09-19T20:23:10.466Z,6.30
2018-09-19T20:25:14.096Z,5.93
2018-09-19T20:27:17.681Z,5.80
2018-09-19T20:29:21.394Z,6.47
2018-09-19T20:31:24.929Z,5.83
2018-09-19T20:33:28.564Z,6.13
2018-09-19T20:35:32.228Z,6.43
2018-09-19T20:37:35.777Z,6.40
2018-09-19T20:39:39.479Z,6.47
2018-09-19T20:41:43.174Z,6.50
2018-09-19T20:43:46.770Z,6.90
2018-09-19T20:45:50.519Z,7.03
2018-09-19T20:47:54.267Z,6.67
2018-09-19T20:49:58.164Z,7.33
2018-09-19T20:52:01.728Z,6.93
2018-09-19T20:54:05.353Z,7.03
2018-09-19T20:56:08.889Z,6.33
2018-09-19T20:58:12.458Z,6.60
2018-09-19T21:00:16.048Z,6.50
2018-09-19T21:02:19.581Z,6.73
2018-09-19T21:04:23.266Z,6.67
2018-09-19T21:06:26.897Z,6.10
2018-09-19T21:08:30.564Z,6.73
2018-09-19T21:10:34.172Z,6.80
2018-09-19T21:12:37.706Z,6.00
2018-09-19T21:14:41.277Z,6.70
2018-09-19T21:16:44.889Z,7.07
2018-09-19T21:18:48.546Z,6.47
2018-09-19T21:20:52.253Z,6.53
2018-09-19T21:22:55.869Z,6.77
2018-09-19T21:24:59.520Z,6.60
2018-09-19T21:27:03.065Z,7.20
2018-09-19T21:29:06.728Z,6.63
2018-09-19T21:31:10.407Z,6.23
2018-09-19T21:33:14.055Z,6.57
2018-09-19T21:35:17.621Z,6.63
2018-09-19T21:37:21.115Z,6.07
2018-09-19T21:39:25.640Z,7.10
2018-09-19T21:41:29.187Z,6.87
2018-09-19T21:43:32.817Z,7.00
2018-09-19T21:45:36.325Z,6.60
2018-09-19T21:47:40.504Z,6.60
2018-09-19T21:49:44.034Z,6.53
2018-09-19T21:51:47.672Z,7.37
2018-09-19T21:53:51.301Z,6.33
2018-09-19T21:55:54.808Z,6.87
2018-09-19T21:57:58.368Z,6.80
2018-09-19T22:00:01.896Z,7.17
2018-09-19T22:02:05.708Z,7.80
2018-09-19T22:04:09.426Z,7.10
2018-09-19T22:06:13.135Z,7.30
2018-09-19T22:08:16.660Z,7.50
2018-09-19T22:10:20.205Z,7.27
2018-09-19T22:12:23.738Z,7.13
2018-09-19T22:14:27.300Z,7.73
2018-09-19T22:16:30.866Z,7.20
2018-09-19T22:18:34.448Z,7.60
2018-09-19T22:20:37.992Z,6.93
2018-09-19T22:22:41.560Z,7.00
2018-09-19T22:24:45.073Z,7.17
2018-09-19T22:26:48.620Z,7.20
2018-09-19T22:28:52.211Z,6.90
2018-09-19T22:30:55.922Z,6.97
2018-09-19T22:32:59.444Z,7.30
2018-09-19T22:35:03.422Z,6.57
2018-09-19T22:37:06.928Z,7.00
2018-09-19T22:39:10.547Z,6.90
2018-09-19T22:41:14.188Z,6.83
2018-09-19T22:43:17.744Z,6.67
2018-09-19T22:45:21.247Z,6.70
2018-09-19T22:47:24.792Z,6.70
2018-09-19T22:49:28.506Z,7.00
2018-09-19T22:51:32.127Z,6.57
2018-09-19T22:53:35.940Z,6.83
2018-09-19T22:55:39.591Z,7.00
2018-09-19T22:57:43.170Z,7.40
2018-09-19T22:59:46.936Z,7.20
2018-09-19T23:01:50.474Z,6.77
2018-09-19T23:03:54.088Z,7.87
2018-09-19T23:05:57.647Z,7.43
2018-09-19T23:08:01.395Z,7.13
2018-09-19T23:10:05.110Z,6.83
2018-09-19T23:12:08.640Z,7.67
2018-09-19T23:14:12.246Z,7.07
2018-09-19T23:16:16.000Z,7.40
2018-09-19T23:18:19.678Z,7.03
2018-09-19T23:20:23.238Z,7.17
2018-09-19T23:22:26.816Z,7.00
2018-09-19T23:24:30.522Z,7.60
2018-09-19T23:26:34.058Z,7.27
2018-09-19T23:28:37.637Z,7.10
2018-09-19T23:30:41.356Z,7.07
2018-09-19T23:32:44.864Z,8.07
2018-09-19T23:34:48.486Z,7.33
2018-09-19T23:36:52.057Z,7.07
2018-09-19T23:38:55.551Z,7.33
2018-09-19T23:40:59.296Z,7.60
2018-09-19T23:43:02.768Z,7.80
2018-09-19T23:45:06.442Z,7.70
2018-09-19T23:47:10.022Z,6.70
2018-09-19T23:49:13.580Z,7.13
2018-09-19T23:51:17.138Z,7.60
2018-09-19T23:53:20.826Z,7.57
2018-09-19T23:55:24.380Z,7.73
2018-09-19T23:57:27.920Z,7.83
2018-09-19T23:59:31.578Z,7.63
